logo
Rechercher aéroport 
image banner adimage banner adimage banner ad
image banner ad

EHQN - Hollandse Kust Noord / Hkn (Converter Platform)

Situé à , Netherlands

ICAO - , IATA -

Données fournies par Airmate  

Information générale

Coordonnées: N52°39'14" E4°15'43"
Élévation : feet MSL.
 
Voir autres Aéroports à Noord-Holland

Données opérationnelles

Special qualification required
Heure actuelle UTC:
Heure actuelle locale:
Météo à : EHKD - Den Helder/De Kooy ( 46 km )
METAR: EHKD 151025Z AUTO 23022KT 200V260 9999 FEW020 SCT045 14/09 Q1000 BLU
TAF: TAF EHKD 150401Z 1505/1517 19003KT 9999 SCT028 BKN040 TEMPO 1505/1509 SCT018CB BKN025 PROB40 TEMPO 1505/1507 3500 SHRA TSRA FEW009 SCT015CB BKN018 BECMG 1507/1509 22021G36KT PROB30 TEMPO 1514/1517 SCT018CB BKN025
Voir NOTAMs / SUP AIP / TFR affectant cet aéroport [VIEW]
Fréquences de communication: [VIEW]

Pistes:

Coordonnées de l'aéroport

Adresse: Netherlands

Vue satellite de EHQN